createdAt,value
2022-07-28T00:00:01.443Z,79.45
2022-07-28T00:05:02.036Z,80.04
2022-07-28T00:10:01.382Z,80.29
2022-07-28T00:15:01.936Z,80.4
2022-07-28T00:20:01.158Z,81.54
2022-07-28T00:25:01.439Z,81.98
2022-07-28T00:30:01.798Z,82.38
2022-07-28T00:35:02.374Z,83.88
2022-07-28T00:40:02.136Z,83.45
2022-07-28T00:45:01.238Z,80.82
2022-07-28T00:50:01.683Z,80.61
2022-07-28T00:55:01.447Z,78.68
2022-07-28T01:00:01.481Z,77.11
2022-07-28T01:05:01.803Z,76.22
2022-07-28T01:10:02.075Z,74.07
2022-07-28T01:15:01.697Z,73.04
2022-07-28T01:20:01.267Z,72.53
2022-07-28T01:25:01.653Z,73.32
2022-07-28T01:30:02.044Z,72.49
2022-07-28T01:35:01.335Z,72.35
2022-07-28T01:40:01.923Z,72.62
2022-07-28T01:45:01.865Z,73.85
2022-07-28T01:50:01.211Z,77.29
2022-07-28T01:55:01.249Z,78.62
2022-07-28T02:00:01.904Z,80.12
2022-07-28T02:05:01.631Z,81.66
2022-07-28T02:10:01.172Z,83.88
2022-07-28T02:15:01.290Z,84.34
2022-07-28T02:20:01.964Z,85.34
2022-07-28T02:25:01.922Z,86.3
2022-07-28T02:30:02.123Z,86.82
2022-07-28T02:35:01.442Z,87.74
2022-07-28T02:40:01.927Z,87.78
2022-07-28T02:45:01.695Z,88.79
2022-07-28T02:50:01.583Z,89.51
2022-07-28T02:55:02.256Z,90.04
2022-07-28T03:00:01.860Z,90.31
2022-07-28T03:05:01.894Z,91.15
2022-07-28T03:10:01.915Z,91.15
2022-07-28T03:15:01.157Z,91.77
2022-07-28T03:20:02.117Z,91.74
2022-07-28T03:25:01.719Z,92.07
2022-07-28T03:30:03.908Z,91.82
2022-07-28T03:35:01.895Z,92.03
2022-07-28T03:40:01.697Z,92.51
2022-07-28T03:45:01.283Z,92.91
2022-07-28T03:50:01.677Z,93.41
2022-07-28T03:55:01.260Z,93.23
2022-07-28T04:00:04.877Z,93.16
2022-07-28T04:05:01.856Z,92.37
2022-07-28T04:10:01.538Z,92.77
2022-07-28T04:15:01.766Z,92.77
2022-07-28T04:20:01.307Z,92.9
2022-07-28T04:25:02.023Z,93.29
2022-07-28T04:30:01.333Z,93.53
2022-07-28T04:35:01.905Z,93.47
2022-07-28T04:40:01.772Z,93.2
2022-07-28T04:45:01.487Z,93.01
2022-07-28T04:50:02.322Z,93.96
2022-07-28T04:55:01.851Z,93.94
2022-07-28T05:00:01.492Z,94.33
2022-07-28T05:05:01.725Z,94.33
2022-07-28T05:10:01.571Z,94.35
2022-07-28T05:15:01.684Z,94.99
2022-07-28T05:20:03.386Z,94.96
2022-07-28T05:25:01.197Z,94.54
2022-07-28T05:30:01.634Z,93.67
2022-07-28T05:35:01.598Z,93.13
2022-07-28T05:40:02.050Z,91.73
2022-07-28T05:45:01.961Z,90.74
2022-07-28T05:50:01.761Z,89.01
2022-07-28T05:55:01.568Z,88.96
2022-07-28T06:00:01.592Z,88.75
2022-07-28T06:05:01.622Z,88.64
2022-07-28T06:10:01.722Z,87.76
2022-07-28T06:15:01.429Z,85.95
2022-07-28T06:20:01.611Z,85.44
2022-07-28T06:25:01.770Z,81
2022-07-28T06:30:01.514Z,77.82
2022-07-28T06:35:01.396Z,74.96
2022-07-28T06:40:01.451Z,73.96
2022-07-28T06:45:01.535Z,70.96
2022-07-28T06:50:01.795Z,69.53
2022-07-28T06:55:02.211Z,68.19
2022-07-28T07:00:01.925Z,66.9
2022-07-28T07:05:01.435Z,65.41
2022-07-28T07:10:01.258Z,64.64
2022-07-28T07:15:01.763Z,64.33
2022-07-28T07:20:01.159Z,65.06
2022-07-28T07:25:01.477Z,63.58
2022-07-28T07:30:01.395Z,63.62
2022-07-28T07:35:01.835Z,63.93
2022-07-28T07:40:01.774Z,63.39
2022-07-28T07:45:01.741Z,62.39
2022-07-28T07:50:04.119Z,60.28
2022-07-28T07:55:01.738Z,61.72
2022-07-28T08:00:01.790Z,64.91
2022-07-28T08:05:01.298Z,64.99
2022-07-28T08:10:01.810Z,64.67
2022-07-28T08:15:01.876Z,64.34
2022-07-28T08:20:02.137Z,63.24
2022-07-28T08:25:01.424Z,64.15
2022-07-28T08:30:01.750Z,62.55
2022-07-28T08:35:30.428Z,62.49
2022-07-28T08:40:01.354Z,61.2
2022-07-28T08:45:01.958Z,60.65
2022-07-28T08:50:01.306Z,60.5
2022-07-28T08:55:01.643Z,59.85
2022-07-28T09:00:01.283Z,59.42
2022-07-28T09:05:01.862Z,57.18
2022-07-28T09:10:02.908Z,56.47
2022-07-28T09:15:02.100Z,55.98
2022-07-28T09:20:03.462Z,56.5
2022-07-28T09:25:01.702Z,55.55
2022-07-28T09:30:01.872Z,56.26
2022-07-28T09:35:01.276Z,57.27
2022-07-28T09:40:03.993Z,55.46
2022-07-28T09:45:21.667Z,54.58
2022-07-28T09:50:01.443Z,54.73
2022-07-28T09:55:01.573Z,56.37
2022-07-28T10:00:02.282Z,56.02
2022-07-28T10:05:01.217Z,55.12
2022-07-28T10:10:01.250Z,55.86
2022-07-28T10:15:01.963Z,55.02
2022-07-28T10:20:01.989Z,53.32
2022-07-28T10:25:01.153Z,56.25
2022-07-28T10:30:01.755Z,55.58
2022-07-28T10:35:01.786Z,51.55
2022-07-28T10:40:06.510Z,52.83
2022-07-28T10:45:01.254Z,51.58
2022-07-28T10:50:01.833Z,51.88
2022-07-28T10:55:01.543Z,52.19
2022-07-28T11:00:12.244Z,52.44
2022-07-28T11:05:01.839Z,51.14
2022-07-28T11:10:01.996Z,51.4
2022-07-28T11:15:18.569Z,51.96
2022-07-28T11:20:24.677Z,51.35
2022-07-28T11:25:18.474Z,50.8
2022-07-28T11:30:01.590Z,50.4
2022-07-28T11:35:01.994Z,50.37
2022-07-28T11:40:01.248Z,49.64
2022-07-28T11:45:01.726Z,51.24
2022-07-28T11:50:01.299Z,52.21
2022-07-28T11:55:01.566Z,50.35
2022-07-28T12:00:01.953Z,50.83
2022-07-28T12:05:01.538Z,50.68
2022-07-28T12:10:01.532Z,52.86
2022-07-28T12:15:06.688Z,51.29
2022-07-28T12:20:01.714Z,51.5
2022-07-28T12:25:01.178Z,52.89
2022-07-28T12:30:01.516Z,52.23
2022-07-28T12:35:01.640Z,51.51
2022-07-28T12:40:01.433Z,52.22
2022-07-28T12:45:01.659Z,50.27
2022-07-28T12:50:06.476Z,52.03
2022-07-28T12:55:01.681Z,50.84
2022-07-28T13:00:01.326Z,51.71
2022-07-28T13:05:01.548Z,52.49
2022-07-28T13:10:02.098Z,52.12
2022-07-28T13:15:01.889Z,52.63
2022-07-28T13:20:01.275Z,55.68
2022-07-28T13:25:01.169Z,54.53
2022-07-28T13:30:01.127Z,52.84
2022-07-28T13:35:01.988Z,51.95
2022-07-28T13:40:01.886Z,49.85
2022-07-28T13:45:01.619Z,49.85
2022-07-28T13:50:01.819Z,51.37
2022-07-28T13:55:04.263Z,51.04
2022-07-28T14:00:01.386Z,49.71
2022-07-28T14:05:01.504Z,51.8
2022-07-28T14:10:01.977Z,52.61
2022-07-28T14:15:01.727Z,53.28
2022-07-28T14:20:01.896Z,52.52
2022-07-28T14:25:01.614Z,50.45
2022-07-28T14:30:03.456Z,50.98
2022-07-28T14:35:02.559Z,50.45
2022-07-28T14:40:01.852Z,49.84
2022-07-28T14:45:01.169Z,51.05
2022-07-28T14:50:01.767Z,51.13
2022-07-28T14:55:01.532Z,49.69
2022-07-28T15:00:01.441Z,49.92
2022-07-28T15:05:01.733Z,49.63
2022-07-28T15:10:01.949Z,50.29
2022-07-28T15:15:02.119Z,50.64
2022-07-28T15:20:01.650Z,50.16
2022-07-28T15:25:01.504Z,50
2022-07-28T15:30:02.981Z,50.16
2022-07-28T15:35:01.505Z,51.07
2022-07-28T15:40:01.396Z,51.32
2022-07-28T15:45:01.757Z,49.94
2022-07-28T15:50:02.035Z,51.09
2022-07-28T15:55:01.302Z,51.09
2022-07-28T16:00:01.732Z,51.7
2022-07-28T16:05:01.360Z,51.34
2022-07-28T16:10:02.110Z,51.77
2022-07-28T16:15:01.744Z,51.62
2022-07-28T16:20:02.417Z,50.25
2022-07-28T16:25:01.478Z,51.87
2022-07-28T16:30:01.808Z,53.6
2022-07-28T16:35:01.282Z,52.13
2022-07-28T16:40:01.669Z,50.19
2022-07-28T16:45:01.174Z,50.8
2022-07-28T16:50:01.797Z,51.02
2022-07-28T16:55:01.852Z,52.72
2022-07-28T17:00:01.288Z,50.48
2022-07-28T17:05:02.035Z,51.41
2022-07-28T17:10:01.457Z,50.39
2022-07-28T17:15:01.859Z,50.81
2022-07-28T17:20:01.492Z,51.23
2022-07-28T17:25:02.085Z,52.7
2022-07-28T17:30:01.508Z,53.7
2022-07-28T17:35:01.301Z,55.12
2022-07-28T17:40:04.530Z,55.65
2022-07-28T17:45:01.848Z,55.6
2022-07-28T17:50:01.439Z,55.37
2022-07-28T17:55:01.181Z,55.35
2022-07-28T18:00:01.183Z,56.34
2022-07-28T18:05:01.545Z,55.86
2022-07-28T18:10:02.034Z,56.93
2022-07-28T18:15:01.328Z,57.69
2022-07-28T18:20:01.750Z,56.56
2022-07-28T18:25:01.633Z,57.73
2022-07-28T18:30:02.063Z,57.74
2022-07-28T18:35:01.985Z,58.21
2022-07-28T18:40:01.776Z,57.53
2022-07-28T18:45:01.485Z,58.01
2022-07-28T18:50:01.940Z,58.24
2022-07-28T18:55:01.763Z,57.73
2022-07-28T19:00:01.509Z,58.08
2022-07-28T19:05:01.542Z,58.19
2022-07-28T19:10:02.211Z,58.77
2022-07-28T19:15:01.554Z,59.01
2022-07-28T19:20:01.979Z,59.37
2022-07-28T19:25:01.289Z,59.35
2022-07-28T19:30:01.680Z,59.14
2022-07-28T19:35:02.243Z,59.28
2022-07-28T19:40:01.293Z,59.6
2022-07-28T19:45:01.625Z,61.04
2022-07-28T19:50:01.162Z,61.76
2022-07-28T19:55:02.110Z,61.4
2022-07-28T20:00:02.088Z,62.36
2022-07-28T20:05:02.067Z,64.73
2022-07-28T20:10:01.790Z,65.03
2022-07-28T20:15:01.178Z,65.26
2022-07-28T20:20:01.700Z,67.35
2022-07-28T20:25:01.212Z,67.07
2022-07-28T20:30:01.218Z,69.5
2022-07-28T20:35:01.363Z,69.03
2022-07-28T20:40:01.514Z,69.81
2022-07-28T20:45:01.172Z,71.22
2022-07-28T20:50:01.905Z,72.54
2022-07-28T20:55:01.389Z,70.56
2022-07-28T21:00:02.054Z,71.21
2022-07-28T21:05:01.221Z,72.3
2022-07-28T21:10:02.073Z,72.55
2022-07-28T21:15:01.772Z,73.18
2022-07-28T21:20:01.883Z,74.17
2022-07-28T21:25:01.301Z,74.41
2022-07-28T21:30:02.072Z,73.65
2022-07-28T21:35:01.923Z,73.04
2022-07-28T21:40:01.306Z,73.6
2022-07-28T21:45:01.879Z,75.62
2022-07-28T21:50:01.893Z,75.62
2022-07-28T21:55:01.702Z,76.06
2022-07-28T22:00:02.116Z,76.26
2022-07-28T22:05:01.766Z,75.43
2022-07-28T22:10:01.556Z,75.24
2022-07-28T22:15:01.425Z,75.24
2022-07-28T22:20:01.169Z,74.97
2022-07-28T22:25:01.524Z,74.73
2022-07-28T22:30:01.442Z,75.28
2022-07-28T22:35:02.132Z,75.7
2022-07-28T22:40:01.997Z,77.47
2022-07-28T22:45:02.105Z,79.1
2022-07-28T22:50:01.671Z,78.85
2022-07-28T22:55:01.322Z,78.77
2022-07-28T23:00:01.881Z,77.57
2022-07-28T23:05:01.577Z,77.57
2022-07-28T23:10:01.241Z,77.57
2022-07-28T23:15:01.168Z,79.17
2022-07-28T23:20:01.312Z,78.92
2022-07-28T23:25:01.552Z,77.43
2022-07-28T23:30:01.533Z,77.36
2022-07-28T23:35:01.876Z,77.81
2022-07-28T23:40:01.372Z,79.85
2022-07-28T23:45:01.812Z,80.81
2022-07-28T23:50:01.949Z,80.43
2022-07-28T23:55:01.945Z,81.5
